createdAt,value
2022-10-13T07:12:34.053Z,23.35
2022-10-13T07:15:01.103Z,23.42
2022-10-13T07:17:28.217Z,14.95
2022-10-13T07:19:57.910Z,17.20
2022-10-13T07:22:25.487Z,14.80
2022-10-13T07:24:52.542Z,15.20
2022-10-13T07:27:19.678Z,16.23
2022-10-13T07:29:47.314Z,19.23
2022-10-13T07:32:18.518Z,15.80
2022-10-13T07:34:47.506Z,21.17
2022-10-13T07:37:14.907Z,15.57
2022-10-13T07:39:42.674Z,17.52
2022-10-13T07:42:09.995Z,18.98
2022-10-13T07:44:37.213Z,13.82
2022-10-13T07:47:10.881Z,14.52
2022-10-13T07:49:44.758Z,14.95
2022-10-13T07:52:22.107Z,14.65
2022-10-13T08:12:07.167Z,13.57
2022-10-13T08:14:34.414Z,15.00
2022-10-13T08:17:01.781Z,9.40
2022-10-13T08:19:28.889Z,13.27
2022-10-13T08:21:58.631Z,12.35
2022-10-13T08:24:27.657Z,16.50
2022-10-13T08:26:55.001Z,14.02
2022-10-13T08:33:06.561Z,12.98
2022-10-13T08:35:34.902Z,12.10
2022-10-13T08:38:02.219Z,15.90
2022-10-13T08:40:29.608Z,13.85
2022-10-13T08:43:00.355Z,13.27
2022-10-13T08:45:40.987Z,14.67
2022-10-13T08:48:32.114Z,11.18
2022-10-13T08:51:01.533Z,13.60
2022-10-13T08:53:40.897Z,11.20
2022-10-13T08:56:09.889Z,11.52
2022-10-13T08:58:39.683Z,15.30
2022-10-13T09:01:09.785Z,10.38
2022-10-13T09:04:18.393Z,14.15
2022-10-13T09:06:59.184Z,14.90
2022-10-13T09:09:27.178Z,15.75
2022-10-13T09:11:55.594Z,16.77
2022-10-13T09:22:42.319Z,13.55
2022-10-13T09:25:09.740Z,12.35
2022-10-13T09:28:06.908Z,15.25
2022-10-13T09:30:35.551Z,16.63
2022-10-13T09:33:10.974Z,17.52
2022-10-13T09:35:42.750Z,19.17
2022-10-13T09:38:36.386Z,13.13
2022-10-13T09:41:06.557Z,17.17
2022-10-13T09:43:36.132Z,14.73
2022-10-13T09:46:13.037Z,12.00
2022-10-13T09:48:48.705Z,11.13
2022-10-13T09:54:35.395Z,13.05
2022-10-13T09:57:04.554Z,12.02
2022-10-13T09:59:38.486Z,13.75
2022-10-13T10:02:19.414Z,13.52
2022-10-13T10:04:49.030Z,15.13
2022-10-13T10:07:27.797Z,13.95
2022-10-13T10:10:01.796Z,15.82
2022-10-13T10:12:31.537Z,15.48
2022-10-13T10:14:58.743Z,13.20
2022-10-13T10:17:44.224Z,13.18
2022-10-13T10:20:37.850Z,13.02
2022-10-13T10:23:24.013Z,14.00
2022-10-13T10:25:51.107Z,15.90
2022-10-13T10:28:33.407Z,15.77
2022-10-13T10:31:19.515Z,12.25
2022-10-13T10:33:52.111Z,25.08
2022-10-13T10:36:33.435Z,18.92
2022-10-13T10:39:08.918Z,21.80
2022-10-13T10:41:45.176Z,21.20
2022-10-13T10:44:22.310Z,23.20
2022-10-13T10:46:50.374Z,28.20
2022-10-13T10:49:24.363Z,33.87
2022-10-13T10:51:51.623Z,36.50
2022-10-13T10:54:37.713Z,40.15
2022-10-13T10:57:29.299Z,44.08
2022-10-13T10:59:56.337Z,49.88
2022-10-13T11:02:26.581Z,43.83
2022-10-13T11:04:54.832Z,47.42
2022-10-13T11:07:24.849Z,37.80
2022-10-13T11:09:51.889Z,46.95
2022-10-13T11:12:22.548Z,39.67
2022-10-13T11:15:03.131Z,36.33
2022-10-13T11:17:39.796Z,30.58
2022-10-13T11:20:15.994Z,31.27
2022-10-13T11:22:43.026Z,32.58
2022-10-13T11:25:26.861Z,26.50
2022-10-13T11:27:54.162Z,30.67
2022-10-13T11:30:41.930Z,24.85
2022-10-13T11:33:27.846Z,21.27
2022-10-13T11:35:54.863Z,24.20
2022-10-13T11:38:27.309Z,26.50
2022-10-13T11:41:06.482Z,26.23
2022-10-13T11:43:33.455Z,22.77
2022-10-13T11:46:13.200Z,22.65
2022-10-13T11:49:00.473Z,22.67
2022-10-13T11:51:36.732Z,21.10
2022-10-13T11:54:22.451Z,15.02
2022-10-13T11:56:50.784Z,15.30
2022-10-13T11:59:22.718Z,27.80
2022-10-13T12:01:54.173Z,11.82
2022-10-13T12:04:22.292Z,11.10
2022-10-13T12:06:55.093Z,13.40
2022-10-13T12:09:22.475Z,5.88
2022-10-13T12:11:57.085Z,9.52
2022-10-13T12:14:32.117Z,7.07
2022-10-13T12:17:00.335Z,6.72
2022-10-13T12:19:29.586Z,6.53
2022-10-13T12:21:58.190Z,4.63
2022-10-13T12:24:26.403Z,4.75
2022-10-13T12:26:54.714Z,7.87
2022-10-13T12:29:26.701Z,7.57
2022-10-13T12:31:54.739Z,13.13
2022-10-13T12:34:27.487Z,8.27
2022-10-13T12:36:57.172Z,7.60
2022-10-13T12:39:25.315Z,9.10
2022-10-13T12:41:52.724Z,8.98
2022-10-13T12:44:24.880Z,8.13
2022-10-13T12:46:53.470Z,8.25
2022-10-13T12:49:22.655Z,6.40
2022-10-13T12:51:51.573Z,7.85
2022-10-13T12:54:23.442Z,11.10
2022-10-13T12:56:55.342Z,15.23
2022-10-13T12:59:24.219Z,12.63
2022-10-13T13:01:57.550Z,10.48
